Sweeney Granite Mountains, California Weather observations

Data are for 10 minute period ending at time listed.
 Day   Time   Solar   Ave.   Ave.  Ave.  Vector  Max.   Baro.   Total    
  of    of     Rad.   Air    Rel.  Wind   Wind   Wind  Press.  Precip.   
Year   Day            Temp.  Hum.  Speed  Dir.   Gust                    
2015   (PST)  Kw/m2    F      %     mph   deg.    mph    mb.     in.     
-------------------------------------------------------------------------
  87    1:10   0.00   64.0    17    3.3   260     5.6   873.2    0.00 
  87    1:20   0.00   62.9    18    4.8   267     7.5   873.1    0.00 
  87    1:30   0.00   64.9    16    4.5   259     6.4   873.0    0.00 
  87    1:40   0.00   62.7    18    3.3   262     5.3   872.9    0.00 
  87    1:50   0.00   62.3    18    4.1   256     6.4   872.8    0.00 
  87    2:00   0.00   65.5    16    4.5   254     7.0   872.8    0.00 
  87    2:10   0.00   64.9    17    4.3   258     6.4   872.7    0.00 
  87    2:20   0.00   65.3    16    4.4   257     6.5   872.5    0.00 
  87    2:30   0.00   65.3    16    4.4   256     6.5   872.5    0.00 
  87    2:40   0.00   65.2    17    4.8   265     7.5   872.5    0.00 
  87    2:50   0.00   65.4    16    6.4   268     8.0   872.5    0.00 
  87    3:00   0.00   65.2    17    6.3   271     8.3   872.4    0.00 
  87    3:10   0.00   64.7    18    4.9   278     7.4   872.4    0.00 
  87    3:20   0.00   63.9    20    5.7   299    11.4   872.3    0.00 
  87    3:30   0.00   65.9    19    9.7   312    15.4   872.2    0.00 
  87    3:40   0.00   66.3    19    8.6   311    14.5   872.3    0.00 
  87    3:50   0.00   65.3    20    7.3   299    11.0   872.3    0.00 
  87    4:00   0.00   64.6    21    6.6   290    10.2   872.4    0.00 
  87    4:10   0.00   65.0    20    8.2   311    12.0   872.4    0.00 
  87    4:20   0.00   66.1    19    8.5   320    13.3   872.5    0.00 
  87    4:30   0.00   66.4    19    7.6   333    11.4   872.5    0.00 
  87    4:40   0.00   66.8    20   12.0   326    18.0   872.7    0.00 
  87    4:50   0.00   66.7    20   11.7   319    16.4   872.8    0.00 
  87    5:00   0.00   66.3    22   14.1   313    19.7   872.8    0.00 
  87    5:10   0.00   66.1    22   13.9   314    19.8   872.8    0.00 
  87    5:20   0.00   65.9    22   11.1   317    16.2   872.9    0.00 
  87    5:30   0.00   65.8    23   11.1   315    17.0   873.0    0.00 
  87    5:40   0.00   66.0    22   12.2   320    19.0   873.1    0.00 
  87    5:50   0.00   66.1    22   11.3   327    17.0   873.1    0.00 
  87    6:00   0.01   66.5    22   10.7   334    17.5   873.1    0.00 
  87    6:10   0.04   66.1    23   11.9   321    19.5   873.2    0.00 
  87    6:20   0.08   66.6    22   10.5   333    16.7   873.3    0.00 
  87    6:30   0.11   67.1    22   10.8   322    17.3   873.4    0.00 
  87    6:40   0.14   67.4    22   11.6   320    15.9   873.4    0.00 
  87    6:50   0.18   68.0    22   11.1   323    16.7   873.4    0.00 
  87    7:00   0.22   68.4    21   10.7   324    17.1   873.5    0.00 
  87    7:10   0.26   68.9    20    9.9   329    15.3   873.6    0.00 
  87    7:20   0.29   69.7    20    9.2   331    12.9   873.7    0.00 
  87    7:30   0.33   71.0    18    6.3   322    10.4   873.8    0.00 
  87    7:40   0.37   70.9    19    7.9   320    12.1   873.8    0.00 
  87    7:50   0.41   71.6    18    6.4   311    11.8   873.9    0.00 
  87    8:00   0.45   72.7    18    5.9   320    10.1   874.0    0.00 
  87    8:10   0.48   72.7    18    7.2   314    11.2   874.1    0.00 
  87    8:20   0.52   72.8    18    6.4   319    10.5   874.2    0.00 
  87    8:30   0.56   73.8    17    3.4   301     7.0   874.3    0.00 
  87    8:40   0.59   75.2    15    3.4   196     8.1   874.4    0.00 
  87    8:50   0.62   76.0    14    3.7   106     9.3   874.4    0.00 
  87    9:00   0.66   75.3    15    4.2   105     9.5   874.4    0.00 
  87    9:10   0.68   75.9    14    3.7   171     9.9   874.4    0.00 
  87    9:20   0.71   75.7    14    4.8   222     9.3   874.5    0.00 
  87    9:30   0.74   76.0    14    4.2   202     9.5   874.5    0.00 
  87    9:40   0.77   75.9    14    4.2   142    11.0   874.5    0.00 
  87    9:50   0.79   77.3    14    3.7   183     8.1   874.5    0.00 
  87   10:00   0.82   76.5    14    4.9   136    10.9   874.4    0.00 
  87   10:10   0.84   76.3    14    5.2   102    11.0   874.4    0.00 
  87   10:20   0.86   77.9    13    5.2   222    10.7   874.6    0.00 
  87   10:30   0.88   77.5    13    3.5   162    11.2   874.7    0.00 
  87   10:40   0.89   77.6    13    5.6   117    10.1   874.6    0.00 
  87   10:50   0.91   77.0    13    4.2   119    11.0   874.5    0.00 
  87   11:00   0.92   78.3    13    3.7   178     9.3   874.4    0.00 
  87   11:10   0.93   77.8    13    3.8   216    11.8   874.4    0.00 
  87   11:20   0.93   77.4    13    3.3   100    11.8   874.3    0.00 
  87   11:30   0.94   77.8    13    5.7   128    10.9   874.3    0.00 
  87   11:40   0.94   77.6    13    3.8   175     9.6   874.3    0.00 
  87   11:50   0.94   79.5    12    3.0   217    11.7   874.2    0.00 
  87   12:00   0.94   78.2    13    4.9   172    11.0   874.1    0.00 
  87   12:10   0.94   78.5    13    4.9   191    12.7   874.0    0.00 
  87   12:20   0.94   78.3    12    6.6   246    13.7   873.8    0.00 
  87   12:30   0.94   78.6    12    3.5   255    12.6   873.6    0.00 
  87   12:40   0.93   78.3    13    5.1   226    13.4   873.5    0.00 
  87   12:50   0.90   78.2    13    5.5   177    12.9   873.5    0.00 
  87   13:00   0.91   78.2    13    5.2   159    17.7   873.3    0.00 
  87   13:10   0.90   79.1    12    6.2    87    13.5   873.1    0.00 
  87   13:20   0.88   79.0    12    6.2    98    13.4   873.0    0.00 
  87   13:30   0.87   78.8    12    6.8   106    16.6   872.9    0.00 
  87   13:40   0.85   79.9    11    4.4    74     8.7   872.9    0.00 
  87   13:50   0.83   81.4    11    2.9   118    10.0   872.8    0.00 
  87   14:00   0.81   80.8    10    2.6   296     6.9   872.7    0.00 
  87   14:10   0.79   81.0     9    2.7   167     7.3   872.5    0.00 
  87   14:20   0.76   79.5    11    7.4   110    14.3   872.3    0.00 
  87   14:30   0.73   79.8    10    4.7   111    14.6   872.2    0.00 
  87   14:40   0.71   80.3    10    3.9   110    14.4   872.2    0.00 
  87   14:50   0.68   80.7    10    3.7    82    11.9   872.2    0.00 
  87   15:00   0.65   80.2    10    5.7   113    12.9   872.1    0.00 
  87   15:10   0.61   79.6    10    5.2   105    14.8   872.0    0.00 
  87   15:20   0.57   79.6    10    4.7   230    12.9   872.0    0.00 
  87   15:30   0.54   80.8    10    3.3   235    11.3   872.0    0.00 
  87   15:40   0.50   80.2    10    3.5   138    13.0   872.0    0.00 
  87   15:50   0.47   79.9    10    3.7   116    12.6   871.9    0.00 
  87   16:00   0.43   79.6    10    4.1   213     9.3   871.9    0.00 
  87   16:10   0.39   80.1    10    3.9   278     7.8   871.8    0.00 
  87   16:20   0.35   79.9     9    3.4   238    10.3   871.8    0.00 
  87   16:30   0.32   79.4     9    5.0   234    10.9   871.8    0.00 
  87   16:40   0.28   79.3    10    5.5   283    11.8   871.8    0.00 
  87   16:50   0.24   80.0     9    3.1   231     6.1   871.9    0.00 
  87   17:00   0.20   78.3     9    6.2   217    11.0   872.0    0.00 
  87   17:10   0.14   77.7     9    2.2   225     4.7   872.0    0.00 
  87   17:20   0.02   75.9    10    2.4   287     6.6   871.9    0.00 
  87   17:30   0.01   74.1    10    2.1    56     5.2   871.9    0.00 
  87   17:40   0.01   74.1    10    1.5   149     4.2   871.7    0.00 
  87   17:50   0.01   71.9    12    2.0   264     3.5   871.6    0.00 
  87   18:00   0.00   70.8    12    1.1   109     3.1   871.6    0.00 
  87   18:10   0.00   71.8    12    4.7    68     7.8   871.5    0.00 
  87   18:20   0.00   72.0    12    2.5    88     4.7   871.5    0.00 
  87   18:30   0.00   67.5    14    2.6   275     4.3   871.6    0.00 
  87   18:40   0.00   68.1    13    2.6   298     4.2   871.6    0.00 
  87   18:50   0.00   68.4    13    0.9   273     2.7   871.6    0.00 
  87   19:00   0.00   68.2    13    3.2   280     4.1   871.6    0.00 
  87   19:10   0.00   66.7    14    3.7   287     5.1   871.7    0.00 
  87   19:20   0.00   66.0    14    3.4   287     4.0   871.9    0.00 
  87   19:30   0.00   65.7    15    3.9   273     5.0   871.9    0.00 
  87   19:40   0.00   65.7    15    3.4   274     4.3   872.0    0.00 
  87   19:50   0.00   64.7    16    4.8   272     5.8   872.0    0.00 
  87   20:00   0.00   64.5    16    4.6   274     5.8   872.1    0.00 
  87   20:10   0.00   64.1    17    4.5   272     5.7   872.2    0.00 
  87   20:20   0.00   63.1    18    3.7   284     4.5   872.2    0.00 
  87   20:30   0.00   65.1    17    4.3   282     5.6   872.3    0.00 
  87   20:40   0.00   64.7    17    3.8   268     4.8   872.3    0.00 
  87   20:50   0.00   62.2    19    4.4   273     5.6   872.3    0.00 
  87   21:00   0.00   64.1    17    4.5   275     5.5   872.3    0.00 
  87   21:10   0.00   64.2    17    4.5   264     6.2   872.4    0.00 
  87   21:20   0.00   63.6    18    3.6   274     4.6   872.4    0.00 
  87   21:30   0.00   62.6    18    4.0   273     5.0   872.5    0.00 
  87   21:40   0.00   62.3    18    4.0   272     5.5   872.5    0.00 
  87   21:50   0.00   60.2    20    3.9   275     4.7   872.5    0.00 
  87   22:00   0.00   63.0    17    4.1   262     5.6   872.5    0.00 
  87   22:10   0.00   61.7    18    4.0   277     5.3   872.5    0.00 
  87   22:20   0.00   63.2    17    3.4   281     4.5   872.5    0.00 
  87   22:30   0.00   60.9    19    4.5   276     5.5   872.5    0.00 
  87   22:40   0.00   59.5    20    4.6   276     5.7   872.5    0.00 
  87   22:50   0.00   61.4    18    5.4   286     6.5   872.5    0.00 
  87   23:00   0.00   65.6    15    5.7   330    10.4   872.4    0.00 
  87   23:10   0.00   68.8    14    8.4   319    11.8   872.4    0.00 
  87   23:20   0.00   68.4    14   10.3   310    14.5   872.4    0.00 
  87   23:30   0.00   68.2    14   11.9   305    16.5   872.4    0.00 
  87   23:40   0.00   67.4    15   10.2   288    14.8   872.5    0.00 
  87   23:50   0.00   66.7    16    9.3   296    13.7   872.6    0.00 
  88    0:00   0.00   68.1    15   10.2   313    13.1   872.6    0.00 
  88    0:10   0.00   68.2    15   10.9   310    14.3   872.5    0.00 
  88    0:20   0.00   68.1    16   10.1   316    14.0   872.4    0.00 
  88    0:30   0.00   67.3    16   10.4   305    13.9   872.3    0.00 
  88    0:40   0.00   66.2    17    9.5   299    12.3   872.2    0.00 
  88    0:50   0.00   65.7    18    8.3   281    10.2   872.1    0.00 
  88    1:00   0.00   65.9    17    8.2   298    10.9   872.1    0.00 

Return to Sweeney Granite Mountains graphs page.


Western Regional Climate Center,wrcc@dri.edu